Clarita, OK (74535)

7:13 AM CDT on July 24, 2016 (GMT -0500)
PRC Shorthorns | | Change Station
Active Advisory: Heat Advisory

Elev 899 ft 34.36 °N, 96.58 °W | Updated 15 seconds ago

Clear
Clear
73.8 °F
Feels Like 70 °F
N
0.0
Wind Variable Wind from East
Gusts 0.0 mph

Today
High -- | Low -- °F
--% Chance of Precip.
Yesterday
High -- | Low -- °F
Precip. -- in
Pressure 29.96 in
Visibility 10.0 miles
Clouds Clear
Heat Index 70 °F
Dew Point 73 °F
Humidity 97%
Rainfall 0.00 in
Snow Depth Not available.
6:30 AM 8:33 PM
Waning Gibbous, 77% visible
METAR KAQR 241155Z AUTO 13003KT 10SM CLR 23/21 A2996 RMK AO2
Pressure 29.96 in
Visibility 10.0 miles
Clouds Clear
Heat Index 70 °F
Dew Point 73 °F
Humidity 97%
Rainfall 0.00 in
Snow Depth Not available.
6:30 AM 8:33 PM
Waning Gibbous, 77% visible
METAR KAQR 241155Z AUTO 13003KT 10SM CLR 23/21 A2996 RMK AO2

10-Day Weather Forecast

Almanac

Astronomy

Jul. 24, 2016 Rise Set
Actual Time
Civil Twilight
Nautical Twilight
Astronomical Twilight
Moon
Length of Visible Light
Length of Day
Tomorrow will be .
, % of the Moon is Illuminated

Today's Extremes

State Highs State Lows

Community

WunderPhotos

Upload Photos

1,927,053 photos uploaded!

WunderBlog® & News

Nearby

Air Quality

  Air Quality AQ Index Pollutant
Not available.

Snow Depth

Station Depth Elevation

Earthquake Activity

City Distance Mag. Time & Date
Minimum magnitude displayed is 2.5.

Coastal Water Temperatures

Place Temperature

Stations

Nearby Weather Stations

Station Location Temp. Windchill Dew Point Humidity Wind Precip. Elev Updated Type
                   

Watches & Warnings

Heat Advisory
Issued: 3:20 AM CDT Jul. 24, 2016 – National Weather Service

... Heat advisory remains in effect until 8 PM CDT this evening...

* temperature... afternoon and early evening heat index values
105 to 110.

* Impacts... heat exhaustion or heat stroke can quickly occur to
anyone working or participating in outdoor activities.

Precautionary/preparedness actions...

Take extra precautions if you work or spend time outside. When
possible... reschedule strenuous activities to early morning or
evening. Know the signs and symptoms of heat exhaustion and heat
stroke. Wear lightweight and loose fitting clothing when possible
and drink plenty of water.

To reduce risk during outdoor work the occupational safety and
health administration recommends scheduling frequent rest breaks
in shaded or air conditioned environments. Anyone overcome by
heat should be moved to a cool and shaded location. Heat stroke
is an emergency... call 9 1 1.